Time;durP1;ratioP1;P1;durP2;ratioP2;P2;SDS_P1;SDS_P2;PMS_P1;PMS_P2;Temp;Humidity;BMP_temperature;BMP_pressure;BME280_temperature;BME280_humidity;BME280_pressure;Samples;Min_cycle;Max_cycle;Signal;HPM_P1;HPM_P2
2023/01/04 00:01:33;;;;;;;13.55;1.77;;;;;;;8.12;72.73;100567.88;4290809;33;34418;-83
2023/01/04 00:04:01;;;;;;;1.40;1.30;;;;;;;8.16;73.12;100582.63;4290606;33;33656;-83
2023/01/04 00:06:30;;;;;;;1.58;1.45;;;;;;;8.08;74.46;100590.28;4290754;33;33919;-82
2023/01/04 00:08:58;;;;;;;0.98;0.98;;;;;;;7.83;75.79;100594.09;4290734;33;34992;-83
2023/01/04 00:11:26;;;;;;;1.37;1.27;;;;;;;7.86;75.93;100599.34;4289153;33;33382;-82
2023/01/04 00:13:56;;;;;;;1.30;1.20;;;;;;;7.69;76.99;100600.69;4277929;33;34280;-82
2023/01/04 00:16:26;;;;;;;1.65;1.55;;;;;;;7.87;75.76;100601.09;4277623;33;33955;-82
2023/01/04 00:18:55;;;;;;;1.35;1.25;;;;;;;7.48;76.82;100607.19;4290771;33;34613;-82
2023/01/04 00:21:27;;;;;;;0.90;0.90;;;;;;;7.58;76.88;100603.06;4290680;33;34945;-82
2023/01/04 00:23:58;;;;;;;1.00;1.00;;;;;;;7.18;78.10;100602.16;4277947;33;33034;-82
2023/01/04 00:26:29;;;;;;;1.17;1.17;;;;;;;7.25;78.21;100603.19;4277813;33;34046;-82
2023/01/04 00:29:01;;;;;;;2.45;2.30;;;;;;;6.88;79.41;100604.91;4277908;33;35018;-82
2023/01/04 00:31:29;;;;;;;0.82;0.82;;;;;;;6.95;79.17;100605.09;4290882;33;34208;-82
2023/01/04 00:33:59;;;;;;;0.93;0.90;;;;;;;7.00;78.93;100608.66;4290603;33;33448;-82
2023/01/04 00:36:28;;;;;;;2.40;2.22;;;;;;;7.20;77.25;100609.16;4289442;33;34613;-82
2023/01/04 00:39:08;;;;;;;1.52;1.42;;;;;;;6.91;78.25;100610.16;4290442;33;35959;-82
2023/01/04 00:41:45;;;;;;;1.20;1.12;;;;;;;6.97;77.63;100603.44;4278690;33;34301;-82
2023/01/04 00:44:33;;;;;;;0.60;0.60;;;;;;;7.26;76.08;100598.03;4279437;33;33430;-82
2023/01/04 00:47:03;;;;;;;0.75;0.75;;;;;;;6.87;76.59;100603.16;4277835;33;33878;-82
2023/01/04 00:49:32;;;;;;;1.85;1.75;;;;;;;7.25;75.19;100604.06;4277527;33;35855;-82
2023/01/04 00:52:00;;;;;;;0.85;0.85;;;;;;;7.04;75.76;100599.25;4265982;33;34422;-82
2023/01/04 00:54:28;;;;;;;2.28;1.05;;;;;;;7.10;76.05;100599.41;4289470;33;34114;-82
2023/01/04 00:56:57;;;;;;;3.75;1.95;;;;;;;7.49;73.82;100597.69;4290360;33;34337;-82
2023/01/04 00:59:26;;;;;;;1.12;1.02;;;;;;;7.41;73.43;100602.69;4289295;33;34810;-82
2023/01/04 01:01:54;;;;;;;0.75;0.75;;;;;;;6.97;74.70;100603.44;4277481;33;33965;-82
2023/01/04 01:04:23;;;;;;;2.15;1.95;;;;;;;7.14;72.79;100603.81;4289016;33;33407;-82
2023/01/04 01:06:51;;;;;;;1.27;1.20;;;;;;;6.57;74.15;100611.91;4277500;33;34011;-83
2023/01/04 01:09:21;;;;;;;1.65;1.55;;;;;;;6.83;72.46;100615.16;4277461;33;34985;-82
2023/01/04 01:11:52;;;;;;;1.20;0.98;;;;;;;6.28;73.37;100613.72;4290518;33;33823;-82
2023/01/04 01:14:23;;;;;;;0.52;0.52;;;;;;;6.53;72.95;100610.94;4290404;33;33133;-82
2023/01/04 01:16:51;;;;;;;1.37;1.35;;;;;;;6.50;72.39;100610.00;4290385;33;33599;-82
2023/01/04 01:19:25;;;;;;;0.98;0.98;;;;;;;5.95;74.65;100609.31;4277785;33;35032;-82
2023/01/04 01:21:55;;;;;;;1.55;1.37;;;;;;;6.24;73.89;100618.78;4289678;33;34864;-82
2023/01/04 01:24:23;;;;;;;1.40;1.37;;;;;;;6.03;74.04;100613.03;4290250;33;32956;-83
2023/01/04 01:26:51;;;;;;;2.33;2.10;;;;;;;6.20;74.29;100606.63;4290226;33;34735;-82
2023/01/04 01:29:19;;;;;;;1.02;1.02;;;;;;;6.08;74.99;100612.31;4290232;33;35089;-82
2023/01/04 01:31:47;;;;;;;0.68;0.68;;;;;;;5.63;77.55;100617.00;4277568;33;34363;-83
2023/01/04 01:34:15;;;;;;;1.33;1.23;;;;;;;5.15;81.18;100612.97;4289231;33;33804;-82
2023/01/04 01:36:44;;;;;;;1.27;1.25;;;;;;;5.53;80.31;100613.28;4290448;33;34816;-82
2023/01/04 01:39:12;;;;;;;1.42;1.33;;;;;;;5.61;80.04;100616.97;4276981;33;34087;-82
2023/01/04 01:41:40;;;;;;;0.90;0.90;;;;;;;5.69;80.30;100612.03;4277149;33;34103;-82
2023/01/04 01:44:11;;;;;;;2.92;2.33;;;;;;;5.77;81.00;100605.38;4290124;33;33071;-82
2023/01/04 01:46:43;;;;;;;1.05;1.05;;;;;;;5.71;81.48;100605.19;4277025;33;33085;-82
2023/01/04 01:49:21;;;;;;;2.35;1.45;;;;;;;5.70;81.76;100604.31;4289194;33;35173;-82
2023/01/04 01:51:51;;;;;;;3.78;3.17;;;;;;;6.02;80.37;100600.94;4289071;33;34015;-82
2023/01/04 01:54:27;;;;;;;0.98;0.90;;;;;;;5.93;80.51;100606.69;4290067;33;34236;-82
2023/01/04 01:56:57;;;;;;;1.45;1.35;;;;;;;5.84;81.55;100606.41;4288802;33;33462;-82
2023/01/04 01:59:26;;;;;;;1.02;1.02;;;;;;;5.93;80.85;100605.81;4288941;33;34940;-82
2023/01/04 02:01:54;;;;;;;1.70;1.60;;;;;;;5.79;81.42;100602.81;4277101;33;34700;-82
2023/01/04 02:04:23;;;;;;;2.05;1.90;;;;;;;5.70;82.70;100603.47;4288722;33;34025;-82
2023/01/04 02:06:54;;;;;;;1.27;1.17;;;;;;;5.66;83.06;100606.75;4290145;33;34660;-82
2023/01/04 02:09:22;;;;;;;1.08;1.08;;;;;;;6.13;80.31;100609.00;4276958;33;35160;-82
2023/01/04 02:11:50;;;;;;;2.72;1.73;;;;;;;6.07;80.16;100605.41;4288984;33;34418;-82
2023/01/04 02:14:28;;;;;;;0.93;0.93;;;;;;;5.83;80.08;100610.72;4276946;33;33319;-82
2023/01/04 02:17:23;;;;;;;0.60;0.60;;;;;;;6.06;79.43;100608.81;4278317;33;33926;-82
2023/01/04 02:20:16;;;;;;;0.65;0.65;;;;;;;6.06;78.24;100610.53;4289722;33;34828;-82
2023/01/04 02:22:53;;;;;;;1.00;1.00;;;;;;;5.68;79.44;100611.16;4276540;33;33304;-82
2023/01/04 02:25:45;;;;;;;1.27;1.23;;;;;;;5.86;79.10;100605.66;4276542;33;31940;-82
2023/01/04 02:28:52;;;;;;;0.90;0.90;;;;;;;6.22;77.57;100597.19;4288616;33;33884;-82
2023/01/04 02:31:38;;;;;;;1.45;1.35;;;;;;;6.16;78.31;100602.19;4281214;33;35025;-82
2023/01/04 02:34:31;;;;;;;1.30;1.30;;;;;;;5.53;80.62;100600.34;4290772;33;34720;-82
2023/01/04 02:37:13;;;;;;;0.70;0.70;;;;;;;5.92;80.35;100599.75;4291363;33;33422;-82
2023/01/04 02:40:06;;;;;;;1.15;1.08;;;;;;;5.94;79.95;100597.22;4290286;33;34716;-83
2023/01/04 02:45:49;;;;;;;0.60;0.60;;;;;;;5.86;80.01;100604.78;4290326;33;35147;-82
2023/01/04 02:51:04;;;;;;;0.88;0.88;;;;;;;5.89;79.61;100604.84;4291325;33;34693;-83
2023/01/04 02:53:38;;;;;;;1.65;1.55;;;;;;;5.68;79.26;100603.41;4290116;33;35820;-82
2023/01/04 02:56:34;;;;;;;1.27;1.27;;;;;;;5.99;77.56;100596.56;4278325;33;34314;-82
2023/01/04 02:59:21;;;;;;;1.12;1.02;;;;;;;5.48;78.72;100597.63;4291204;33;33053;-82
2023/01/04 03:08:07;;;;;;;1.62;1.52;;;;;;;5.18;77.53;100599.28;4290370;33;35095;-82
2023/01/04 03:14:07;;;;;;;0.68;0.68;;;;;;;4.83;78.41;100599.87;4268666;33;34640;-81
2023/01/04 03:16:55;;;;;;;0.88;0.88;;;;;;;4.88;78.51;100602.63;4291027;33;35045;-82
2023/01/04 03:35:21;;;;;;;0.70;0.70;;;;;;;4.15;79.98;100607.06;4291223;33;34225;-81
2023/01/04 03:36:23;;;;;;;0.60;0.60;;;;;;;3.90;78.38;100595.84;4290036;33;33839;-81
2023/01/04 03:48:30;;;;;;;0.60;0.60;;;;;;;3.44;81.42;100591.53;4245988;33;33941;-85
2023/01/04 03:51:15;;;;;;;0.85;0.85;;;;;;;3.77;79.48;100593.63;4249953;33;35665;-81
2023/01/04 03:54:03;;;;;;;2.47;2.28;;;;;;;3.36;84.24;100593.84;4277630;33;32860;-81
2023/01/04 03:56:32;;;;;;;0.75;0.75;;;;;;;4.18;81.39;100608.03;4290921;33;34092;-82
2023/01/04 03:59:00;;;;;;;0.60;0.60;;;;;;;4.06;81.55;100601.53;4277734;33;34692;-81
2023/01/04 04:01:29;;;;;;;1.40;1.40;;;;;;;3.69;82.15;100597.63;4277909;33;34945;-81
2023/01/04 04:09:31;;;;;;;0.82;0.82;;;;;;;3.50;83.98;100589.22;4289819;33;34586;-81
2023/01/04 04:12:00;;;;;;;0.70;0.70;;;;;;;3.65;84.51;100593.19;4290540;33;34894;-81
2023/01/04 04:14:28;;;;;;;0.60;0.60;;;;;;;3.67;83.62;100592.44;4290592;33;34362;-82
2023/01/04 04:16:56;;;;;;;0.70;0.70;;;;;;;3.80;81.25;100592.06;4289541;33;33409;-82
2023/01/04 04:19:24;;;;;;;0.62;0.62;;;;;;;3.93;78.94;100593.37;4288794;33;33759;-85
2023/01/04 04:21:52;;;;;;;1.33;1.27;;;;;;;3.72;79.32;100595.16;4277376;33;34482;-81
2023/01/04 04:24:23;;;;;;;1.00;0.90;;;;;;;3.36;81.69;100595.53;4290347;33;34306;-80
2023/01/04 04:26:55;;;;;;;1.00;1.00;;;;;;;3.41;82.35;100596.59;4277663;33;33804;-80
2023/01/04 04:29:24;;;;;;;1.40;1.37;;;;;;;3.65;81.78;100603.47;4289421;33;32550;-81
2023/01/04 04:31:52;;;;;;;2.92;1.73;;;;;;;3.74;81.87;100601.25;4277350;33;34911;-86
2023/01/04 04:34:20;;;;;;;0.80;0.80;;;;;;;3.62;81.98;100612.00;4300936;33;34079;-84
2023/01/04 04:36:48;;;;;;;3.42;2.62;;;;;;;3.96;77.88;100606.37;4290360;33;33398;-87
2023/01/04 04:39:16;;;;;;;0.85;0.77;;;;;;;4.20;76.56;100604.62;4290177;33;33927;-86
2023/01/04 04:41:45;;;;;;;1.20;1.20;;;;;;;3.82;77.38;100610.16;4289150;33;35047;-88
2023/01/04 04:44:18;;;;;;;0.60;0.60;;;;;;;3.66;78.22;100611.28;4277256;33;34022;-85
2023/01/04 04:46:47;;;;;;;1.33;1.33;;;;;;;3.16;80.90;100603.37;4277337;33;34156;-89
2023/01/04 04:49:16;;;;;;;1.08;0.70;;;;;;;3.48;80.04;100603.72;4277161;33;33957;-82
2023/01/04 04:51:45;;;;;;;0.60;0.60;;;;;;;3.11;79.62;100604.00;4290565;33;35039;-87
2023/01/04 04:54:19;;;;;;;0.60;0.60;;;;;;;2.41;82.45;100596.00;4277134;33;34337;-85
2023/01/04 04:56:48;;;;;;;1.45;1.37;;;;;;;2.37;83.85;100598.41;4290313;33;33051;-85
2023/01/04 04:59:16;;;;;;;2.00;1.12;;;;;;;2.08;85.36;100595.44;4277078;33;34720;-82
2023/01/04 05:01:44;;;;;;;1.23;1.23;;;;;;;2.39;84.57;100589.94;4289154;33;35184;-80
2023/01/04 05:04:15;;;;;;;0.60;0.60;;;;;;;2.42;84.61;100595.22;4277083;33;34444;-81
2023/01/04 05:06:48;;;;;;;0.60;0.60;;;;;;;2.35;83.91;100597.44;4290272;33;33750;-80
2023/01/04 05:09:16;;;;;;;0.70;0.70;;;;;;;2.57;82.86;100601.81;4265214;33;32975;-80
2023/01/04 05:14:31;;;;;;;;;;;;;;;2.36;84.02;100599.22;4289418;33;35221;-80
2023/01/04 05:16:59;;;;;;;0.80;0.80;;;;;;;2.17;85.33;100603.56;4290253;33;33235;-80
2023/01/04 05:19:27;;;;;;;1.08;1.08;;;;;;;2.30;83.91;100588.69;4289901;33;33929;-80
2023/01/04 05:21:55;;;;;;;0.90;0.90;;;;;;;2.65;83.26;100596.16;4290153;33;34835;-80
2023/01/04 05:24:23;;;;;;;1.33;1.30;;;;;;;2.42;83.69;100608.06;4276857;33;32916;-80
2023/01/04 05:26:51;;;;;;;3.67;1.33;;;;;;;2.53;86.07;100605.94;4290143;33;34408;-79
2023/01/04 05:32:06;;;;;;;0.75;0.75;;;;;;;2.45;85.71;100609.87;4289983;33;34904;-79
2023/01/04 05:34:35;;;;;;;2.42;2.08;;;;;;;1.99;86.45;100629.31;4289834;33;34491;-80
2023/01/04 05:37:03;;;;;;;1.42;1.42;;;;;;;2.50;83.85;100626.38;4289982;33;33341;-80
2023/01/04 05:39:31;;;;;;;0.77;0.77;;;;;;;3.08;82.03;100625.34;4288607;33;34593;-79
2023/01/04 05:42:45;;;;;;;1.52;1.35;;;;;;;3.25;83.12;100627.69;4289997;33;35948;-80
2023/01/04 05:44:47;;;;;;;1.35;1.25;;;;;;;3.39;82.39;100631.72;4288978;33;34759;-80
2023/01/04 05:47:16;;;;;;;0.90;0.90;;;;;;;3.33;79.97;100628.88;4289890;33;33339;-83
2023/01/04 05:49:44;;;;;;;1.80;1.70;;;;;;;3.09;79.46;100637.41;4289707;33;33543;-79
2023/01/04 05:52:11;;;;;;;0.90;0.90;;;;;;;2.67;82.53;100631.38;4289861;33;34887;-79
2023/01/04 05:54:40;;;;;;;0.60;0.60;;;;;;;2.88;80.74;100629.69;4288757;33;35129;-83
2023/01/04 05:57:08;;;;;;;0.75;0.75;;;;;;;2.40;80.15;100627.69;4289958;33;34117;-81
2023/01/04 05:59:36;;;;;;;0.80;0.80;;;;;;;2.21;82.77;100631.16;4289939;33;34051;-87
2023/01/04 06:02:17;;;;;;;0.90;0.90;;;;;;;1.87;83.78;100621.06;4289956;33;34619;-80
2023/01/04 06:04:46;;;;;;;2.40;2.28;;;;;;;2.60;79.05;100622.50;4265353;33;34472;-82
2023/01/04 06:07:21;;;;;;;0.70;0.70;;;;;;;2.36;79.48;100610.34;4277752;33;33550;-80
2023/01/04 06:09:50;;;;;;;0.80;0.80;;;;;;;2.34;79.42;100622.28;4276942;33;34686;-81
2023/01/04 06:12:18;;;;;;;1.80;1.70;;;;;;;2.32;80.49;100623.03;4289813;33;34534;-81
2023/01/04 06:14:46;;;;;;;1.37;1.17;;;;;;;1.43;88.89;100625.03;4276924;33;35085;-80
2023/01/04 06:17:14;;;;;;;1.00;1.00;;;;;;;2.23;87.07;100629.53;4288593;33;33679;-86
2023/01/04 06:19:42;;;;;;;0.90;0.90;;;;;;;2.47;86.14;100632.28;4289849;33;34669;-80
2023/01/04 06:22:10;;;;;;;0.98;0.98;;;;;;;1.95;88.86;100645.41;4289683;33;35886;-80
2023/01/04 06:24:39;;;;;;;1.23;1.23;;;;;;;1.81;89.95;100639.63;4289603;33;35279;-81
2023/01/04 06:27:07;;;;;;;1.92;1.77;;;;;;;2.20;89.58;100646.50;4288608;33;33459;-81
2023/01/04 06:29:35;;;;;;;0.80;0.80;;;;;;;2.41;84.70;100643.97;4289578;33;33666;-84
2023/01/04 06:32:03;;;;;;;1.23;1.23;;;;;;;2.48;82.73;100648.56;4276751;33;35068;-80
2023/01/04 06:34:31;;;;;;;1.10;1.10;;;;;;;2.43;81.91;100648.38;4288403;33;34628;-85
2023/01/04 06:36:59;;;;;;;0.90;0.90;;;;;;;2.38;81.14;100646.41;4289500;33;33419;-79
2023/01/04 06:39:28;;;;;;;1.83;1.73;;;;;;;1.52;87.42;100646.87;4289169;33;33815;-91
2023/01/04 06:41:56;;;;;;;1.25;1.23;;;;;;;1.62;89.16;100648.19;4289317;33;34911;-92
2023/01/04 06:44:33;;;;;;;1.10;1.10;;;;;;;1.46;89.36;100645.72;4289379;33;35191;-79
2023/01/04 06:47:01;;;;;;;1.67;1.05;;;;;;;1.34;91.41;100646.00;4288269;33;33417;-79
2023/01/04 06:49:29;;;;;;;1.12;1.12;;;;;;;1.57;90.60;100641.06;4276185;33;32540;-80
2023/01/04 06:51:58;;;;;;;1.27;1.23;;;;;;;2.16;85.42;100647.19;4288192;33;34896;-81
2023/01/04 06:54:26;;;;;;;2.60;0.88;;;;;;;2.47;81.98;100650.28;4289338;33;34389;-88
2023/01/04 06:56:54;;;;;;;1.00;1.00;;;;;;;1.62;86.00;100648.19;4289226;33;33424;-82
2023/01/04 06:59:22;;;;;;;1.52;1.42;;;;;;;1.73;86.51;100655.50;4289067;33;34714;-80
2023/01/04 07:01:50;;;;;;;1.73;1.60;;;;;;;2.51;83.35;100640.13;4289166;33;35066;-83
2023/01/04 07:04:18;;;;;;;1.00;0.98;;;;;;;2.35;84.08;100649.75;4276038;33;34131;-81
2023/01/04 07:06:46;;;;;;;2.58;2.37;;;;;;;2.01;85.64;100648.25;4289151;33;33632;-78
2023/01/04 07:09:15;;;;;;;2.45;1.85;;;;;;;1.45;89.41;100655.13;4288985;33;34773;-80
2023/01/04 07:11:42;;;;;;;1.02;1.02;;;;;;;2.68;90.84;100654.56;4289000;33;35139;-80
2023/01/04 07:14:11;;;;;;;0.95;0.95;;;;;;;3.10;90.87;100664.88;4289155;33;34531;-82
2023/01/04 07:16:39;;;;;;;0.90;0.90;;;;;;;4.23;87.33;100671.75;4276072;33;33423;-88
2023/01/04 07:19:07;;;;;;;0.80;0.80;;;;;;;4.71;82.12;100667.47;4287750;33;33934;-80
2023/01/04 07:21:36;;;;;;;1.35;1.25;;;;;;;4.44;80.93;100677.69;4290822;33;35139;-77
2023/01/04 07:24:04;;;;;;;0.73;0.73;;;;;;;5.13;76.86;100672.31;4291057;33;34449;-79
2023/01/04 07:26:33;;;;;;;1.95;1.58;;;;;;;5.01;75.06;100668.44;4291097;33;33444;-81
2023/01/04 07:29:13;;;;;;;1.85;1.75;;;;;;;5.10;75.26;100661.88;4289764;33;33939;-77
2023/01/04 07:31:46;;;;;;;0.60;0.60;;;;;;;5.10;74.46;100659.31;4291278;33;36034;-80
2023/01/04 07:34:16;;;;;;;0.70;0.70;;;;;;;5.18;76.24;100651.78;4278095;33;34423;-79
2023/01/04 07:36:46;;;;;;;0.55;0.55;;;;;;;4.79;81.86;100657.41;4289940;33;34368;-77
2023/01/04 07:39:15;;;;;;;0.90;0.90;;;;;;;4.76;85.49;100657.28;4290916;33;33815;-78
2023/01/04 07:41:44;;;;;;;0.95;0.75;;;;;;;5.50;79.47;100651.94;4291090;33;35115;-80
2023/01/04 07:44:14;;;;;;;0.93;0.93;;;;;;;5.50;77.70;100650.22;4291252;33;33851;-78
2023/01/04 07:46:42;;;;;;;0.68;0.68;;;;;;;5.69;77.72;100643.03;4290940;33;33622;-82
2023/01/04 07:49:12;;;;;;;0.70;0.70;;;;;;;5.64;79.74;100652.34;4290826;33;33920;-82
2023/01/04 07:51:48;;;;;;;1.23;1.23;;;;;;;5.94;81.65;100648.94;4289714;33;35812;-79
2023/01/04 07:54:17;;;;;;;0.75;0.75;;;;;;;6.45;81.62;100649.53;4277740;33;33429;-79
2023/01/04 07:56:46;;;;;;;1.67;1.58;;;;;;;7.06;72.99;100654.56;4290825;33;33768;-81
2023/01/04 07:59:16;;;;;;;1.52;1.20;;;;;;;7.55;69.83;100660.91;4277812;33;33760;-77
2023/01/04 08:01:44;;;;;;;0.68;0.68;;;;;;;7.60;71.54;100656.69;4277778;33;35034;-79
2023/01/04 08:04:13;;;;;;;1.23;0.93;;;;;;;7.88;67.92;100665.06;4290477;33;34321;-80
2023/01/04 08:06:43;;;;;;;2.78;2.58;;;;;;;8.79;67.71;100669.50;4290807;33;33457;-80
2023/01/04 08:09:11;;;;;;;3.80;3.50;;;;;;;8.83;65.57;100660.91;4277852;33;34658;-80
2023/01/04 08:11:40;;;;;;;0.82;0.80;;;;;;;8.88;66.44;100664.47;4290793;33;35146;-80
2023/01/04 08:14:08;;;;;;;0.90;0.90;;;;;;;8.92;66.44;100655.88;4290695;33;34383;-71
2023/01/04 08:16:38;;;;;;;1.98;1.02;;;;;;;9.26;66.35;100651.22;4290694;33;34393;-81
2023/01/04 08:19:19;;;;;;;1.70;1.60;;;;;;;9.80;64.88;100644.22;4290628;33;33019;-76
2023/01/04 08:21:47;;;;;;;0.73;0.73;;;;;;;9.78;63.59;100645.06;4290883;33;35926;-81
2023/01/04 08:24:17;;;;;;;3.03;1.50;;;;;;;9.56;65.17;100649.94;4290658;33;35285;-80
2023/01/04 08:26:45;;;;;;;0.90;0.90;;;;;;;9.78;65.06;100637.25;4289495;33;33531;-81
2023/01/04 08:29:14;;;;;;;2.70;2.25;;;;;;;8.41;68.08;100635.88;4277551;33;34071;-70
2023/01/04 08:31:42;;;;;;;0.52;0.52;;;;;;;8.46;68.82;100633.41;4290129;33;36049;-71
2023/01/04 08:34:10;;;;;;;1.70;1.60;;;;;;;8.23;70.47;100635.53;4290568;33;34541;-81
2023/01/04 08:36:47;;;;;;;2.03;1.40;;;;;;;8.34;70.01;100631.41;4290627;33;33593;-82
2023/01/04 08:39:16;;;;;;;1.87;1.77;;;;;;;8.02;72.11;100629.06;4277635;33;34989;-81
2023/01/04 08:41:50;;;;;;;1.58;1.48;;;;;;;8.33;71.31;100637.47;4290431;33;36092;-73
2023/01/04 08:44:39;;;;;;;1.23;1.12;;;;;;;8.42;71.45;100641.94;4290514;33;34457;-82
2023/01/04 08:47:07;;;;;;;0.90;0.90;;;;;;;8.98;70.48;100638.62;4290703;33;33231;-73
2023/01/04 08:49:35;;;;;;;1.55;1.45;;;;;;;9.57;67.80;100636.09;4289331;33;34716;-82
2023/01/04 08:52:03;;;;;;;1.98;1.83;;;;;;;10.88;63.74;100634.16;4290424;33;35027;-82
2023/01/04 08:54:31;;;;;;;1.58;1.35;;;;;;;11.62;60.69;100635.56;4290114;33;34520;-82
2023/01/04 08:56:59;;;;;;;1.75;1.45;;;;;;;12.65;57.56;100630.75;4289153;33;33717;-70
2023/01/04 08:59:28;;;;;;;1.17;1.17;;;;;;;14.20;54.41;100637.47;4290666;33;34116;-83
2023/01/04 09:01:56;;;;;;;1.08;1.08;;;;;;;14.84;50.93;100638.03;4290447;33;35049;-83
2023/01/04 09:04:32;;;;;;;4.70;4.22;;;;;;;15.39;49.48;100635.78;4290222;33;34567;-83
2023/01/04 09:07:00;;;;;;;3.05;2.40;;;;;;;16.49;48.80;100646.78;4277353;33;33615;-83
2023/01/04 09:09:28;;;;;;;2.62;2.42;;;;;;;16.38;46.59;100646.94;4290280;33;34511;-82
2023/01/04 09:11:58;;;;;;;3.53;2.08;;;;;;;16.57;45.64;100644.03;4290323;33;35124;-83
2023/01/04 09:14:26;;;;;;;1.83;1.73;;;;;;;15.64;47.24;100642.56;4290580;33;34316;-83
2023/01/04 09:16:54;;;;;;;2.75;1.92;;;;;;;15.14;49.64;100643.87;4290305;33;33546;-83
2023/01/04 09:19:23;;;;;;;1.62;1.50;;;;;;;14.85;50.13;100637.13;4290218;33;34098;-83
2023/01/04 09:21:51;;;;;;;2.35;2.15;;;;;;;15.29;47.61;100635.03;4289192;33;35022;-83
2023/01/04 09:24:19;;;;;;;2.00;1.85;;;;;;;15.57;49.09;100640.87;4290224;33;34497;-83
2023/01/04 09:26:47;;;;;;;2.83;2.33;;;;;;;16.78;47.05;100633.22;4290289;33;34385;-82
2023/01/04 09:29:16;;;;;;;1.60;1.50;;;;;;;14.95;49.56;100641.44;4289347;33;33971;-71
2023/01/04 09:31:44;;;;;;;2.95;1.87;;;;;;;16.07;46.57;100631.56;4290158;33;35943;-83
2023/01/04 09:34:12;;;;;;;1.50;1.25;;;;;;;15.60;48.68;100625.09;4290249;33;34421;-83
2023/01/04 09:36:47;;;;;;;2.28;1.75;;;;;;;14.45;50.43;100624.25;4289124;33;34505;-82
2023/01/04 09:39:16;;;;;;;0.98;0.98;;;;;;;14.21;52.86;100615.66;4288976;33;34100;-71
2023/01/04 09:42:02;;;;;;;2.00;1.90;;;;;;;13.68;54.21;100624.63;4277898;33;34941;-83
2023/01/04 09:44:36;;;;;;;2.25;1.52;;;;;;;13.76;55.12;100622.81;4289380;33;34409;-82
2023/01/04 09:47:42;;;;;;;1.05;1.05;;;;;;;14.57;52.50;100611.06;4289087;33;34260;-76
2023/01/04 09:50:24;;;;;;;2.47;2.28;;;;;;;13.54;54.29;100605.47;4277265;33;34803;-76
2023/01/04 09:53:02;;;;;;;2.35;2.20;;;;;;;13.26;54.50;100600.25;4290041;33;35914;-82
2023/01/04 09:55:45;;;;;;;1.00;0.98;;;;;;;14.74;51.18;100597.88;4276982;33;32907;-83
2023/01/04 09:58:21;;;;;;;1.52;1.42;;;;;;;14.88;52.58;100597.78;4288841;33;34275;-83
2023/01/04 10:01:10;;;;;;;3.55;1.80;;;;;;;14.95;52.07;100601.22;4289922;33;33978;-82
2023/01/04 10:03:44;;;;;;;1.95;1.75;;;;;;;17.12;44.58;100597.59;4270530;33;213807;-83
2023/01/04 10:06:14;;;;;;;3.22;2.03;;;;;;;18.68;40.45;100596.16;4289932;33;34465;-83
2023/01/04 10:08:43;;;;;;;2.12;1.90;;;;;;;18.42;39.88;100595.91;4290011;33;32671;-82
2023/01/04 10:11:38;;;;;;;2.37;2.20;;;;;;;18.79;40.48;100587.13;4289807;33;33799;-83
2023/01/04 10:14:42;;;;;;;1.35;1.33;;;;;;;18.66;40.55;100595.34;4289659;33;34926;-80
2023/01/04 10:17:32;;;;;;;2.55;2.22;;;;;;;19.73;38.81;100585.53;4289703;33;34421;-83
2023/01/04 10:20:47;;;;;;;1.65;1.55;;;;;;;21.25;35.58;100585.19;4289757;33;33562;-83
2023/01/04 10:23:56;;;;;;;1.23;1.10;;;;;;;21.64;35.31;100579.41;4289871;33;33953;-83
2023/01/04 10:26:33;;;;;;;1.02;1.02;;;;;;;20.21;37.97;100582.38;4289707;33;34940;-84
2023/01/04 10:29:40;;;;;;;3.45;2.10;;;;;;;19.94;38.03;100567.34;4289589;33;34463;-84
2023/01/04 10:32:29;;;;;;;1.00;1.00;;;;;;;19.20;40.04;100579.94;4286996;33;34324;-71
2023/01/04 10:34:57;;;;;;;5.25;1.67;;;;;;;21.76;35.25;100567.50;4289549;33;34897;-71
2023/01/04 10:37:34;;;;;;;4.15;3.05;;;;;;;21.09;36.52;100573.38;4289436;33;35864;-84
2023/01/04 10:40:12;;;;;;;1.10;1.10;;;;;;;20.52;37.15;100576.09;4288350;33;35076;-84
2023/01/04 10:42:49;;;;;;;6.10;2.70;;;;;;;20.22;39.35;100565.59;4276358;33;32901;-84
2023/01/04 10:45:35;;;;;;;6.12;3.83;;;;;;;20.60;36.68;100563.50;4289412;33;33960;-82
2023/01/04 10:48:40;;;;;;;4.15;1.58;;;;;;;21.53;35.91;100552.41;4288390;33;34594;-84
2023/01/04 10:51:09;;;;;;;21.33;2.35;;;;;;;20.92;36.37;100553.66;4288209;33;34413;-71
2023/01/04 10:53:56;;;;;;;1.95;1.83;;;;;;;21.55;35.13;100558.56;4289209;33;33504;-83
2023/01/04 10:56:30;;;;;;;1.62;1.55;;;;;;;22.81;33.28;100550.09;4290034;33;34867;-84
2023/01/04 10:59:10;;;;;;;1.45;1.35;;;;;;;21.63;35.05;100550.31;4289984;33;34547;-82
2023/01/04 11:01:43;;;;;;;1.77;1.67;;;;;;;21.88;34.85;100534.31;4290022;33;35271;-71
2023/01/04 11:04:22;;;;;;;1.37;1.27;;;;;;;21.31;36.45;100529.31;4289927;33;33427;-83
2023/01/04 11:07:15;;;;;;;1.20;1.15;;;;;;;22.13;33.29;100519.19;4291226;33;34117;-83
2023/01/04 11:09:51;;;;;;;5.28;2.42;;;;;;;22.55;33.71;100521.97;4290055;33;35057;-84
2023/01/04 11:12:21;;;;;;;1.48;0.95;;;;;;;23.35;31.33;100511.47;4290024;33;34282;-83
2023/01/04 11:14:50;;;;;;;1.62;1.08;;;;;;;22.12;32.10;100511.28;4278221;33;34370;-71
2023/01/04 11:17:22;;;;;;;3.40;1.95;;;;;;;23.72;31.00;100503.56;4278457;33;33029;-83
2023/01/04 11:19:53;;;;;;;1.23;1.12;;;;;;;22.98;32.03;100512.22;4291005;33;36039;-83
2023/01/04 11:22:30;;;;;;;1.75;1.37;;;;;;;22.27;32.36;100500.09;4289890;33;34472;-84
2023/01/04 11:25:03;;;;;;;2.30;1.33;;;;;;;23.46;31.46;100492.38;4291038;33;33752;-81
2023/01/04 11:28:01;;;;;;;1.25;1.17;;;;;;;22.37;32.13;100487.31;4280324;33;33859;-84
2023/01/04 11:30:40;;;;;;;1.40;1.30;;;;;;;22.63;33.33;100488.03;4289906;33;36020;-83
2023/01/04 11:33:20;;;;;;;2.47;1.85;;;;;;;22.19;33.55;100472.13;4278490;33;34395;-82
2023/01/04 11:35:54;;;;;;;1.80;1.60;;;;;;;22.08;33.89;100468.13;4290915;33;34041;-83
2023/01/04 11:38:27;;;;;;;1.70;1.60;;;;;;;22.97;32.71;100467.97;4278245;33;34878;-83
2023/01/04 11:41:06;;;;;;;1.45;1.35;;;;;;;22.75;32.94;100462.72;4290876;33;35100;-83
2023/01/04 11:43:36;;;;;;;1.20;1.10;;;;;;;22.34;33.74;100466.19;4289973;33;34467;-83
2023/01/04 11:46:07;;;;;;;1.95;1.60;;;;;;;21.90;33.34;100466.19;4278145;33;33289;-83
2023/01/04 11:48:38;;;;;;;1.85;1.37;;;;;;;21.40;34.24;100461.88;4290767;33;34952;-83
2023/01/04 11:51:15;;;;;;;3.03;2.30;;;;;;;21.54;33.94;100456.09;4291061;33;35133;-77
2023/01/04 11:53:45;;;;;;;2.03;1.83;;;;;;;22.32;32.52;100455.69;4290908;33;34434;-83
2023/01/04 11:56:15;;;;;;;0.50;0.50;;;;;;;21.36;33.05;100455.84;4277904;33;33061;-83
2023/01/04 11:59:01;;;;;;;0.73;0.73;;;;;;;20.76;32.79;100457.16;4277740;33;33905;-78
2023/01/04 12:01:31;;;;;;;0.40;0.40;;;;;;;22.28;32.32;100453.19;4290703;33;36202;-84
2023/01/04 12:04:05;;;;;;;0.40;0.40;;;;;;;22.85;28.80;100456.97;4289398;33;34450;-83
2023/01/04 12:06:41;;;;;;;0.32;0.32;;;;;;;21.65;30.80;100448.59;4289332;33;34232;-83
2023/01/04 12:09:15;;;;;;;0.30;0.30;;;;;;;20.80;30.49;100445.53;4289757;33;33995;-82
2023/01/04 12:11:52;;;;;;;0.30;0.30;;;;;;;22.82;27.74;100453.56;4277965;33;35988;-83
2023/01/04 12:14:31;;;;;;;0.50;0.50;;;;;;;20.38;30.48;100452.22;4289555;33;34334;-83
2023/01/04 12:17:12;;;;;;;0.40;0.40;;;;;;;21.76;29.04;100450.84;4289574;33;34589;-83
2023/01/04 12:19:42;;;;;;;0.40;0.40;;;;;;;20.98;30.58;100431.66;4278218;33;34052;-73
2023/01/04 12:22:38;;;;;;;0.70;0.70;;;;;;;20.27;32.38;100439.34;4290604;33;35073;-78
2023/01/04 12:25:23;;;;;;;0.28;0.28;;;;;;;19.98;32.44;100431.53;4277717;33;35280;-73
2023/01/04 12:27:56;;;;;;;0.37;0.37;;;;;;;19.43;30.99;100432.28;4290659;33;33488;-83
2023/01/04 12:30:45;;;;;;;0.30;0.30;;;;;;;19.75;31.65;100424.28;4290735;33;34752;-72
2023/01/04 12:33:33;;;;;;;0.52;0.52;;;;;;;19.41;32.58;100420.91;4290726;33;35127;-83
2023/01/04 12:36:06;;;;;;;0.40;0.40;;;;;;;19.25;32.57;100420.50;4287920;33;34315;-83
2023/01/04 12:38:53;;;;;;;0.90;0.88;;;;;;;18.98;32.41;100421.28;4290601;33;33611;-75
2023/01/04 12:41:44;;;;;;;1.25;0.93;;;;;;;18.50;33.54;100414.62;4290502;33;33984;-71
2023/01/04 12:44:45;;;;;;;0.70;0.70;;;;;;;16.35;37.13;100409.53;4287878;33;34979;-70
2023/01/04 12:50:16;;;;;;;0.90;0.90;;;;;;;15.60;41.85;100394.06;4288514;33;34255;-68
2023/01/04 12:52:50;;;;;;;3.03;2.47;;;;;;;14.97;46.22;100387.88;4287889;33;34048;-71
2023/01/04 12:55:42;;;;;;;1.10;0.82;;;;;;;15.04;47.45;100388.66;4280065;33;35957;-82